createdAt,value
2019-03-17T00:02:15.492Z,11.03
2019-03-17T00:04:43.982Z,11.03
2019-03-17T00:07:12.482Z,11.02
2019-03-17T00:09:41.011Z,11.03
2019-03-17T00:12:09.441Z,11.05
2019-03-17T00:14:37.904Z,11.05
2019-03-17T00:17:06.393Z,11.05
2019-03-17T00:19:34.778Z,10.93
2019-03-17T00:22:03.212Z,11.07
2019-03-17T00:24:31.698Z,11.07
2019-03-17T00:27:00.123Z,11.06
2019-03-17T00:29:28.565Z,11.07
2019-03-17T00:31:57.004Z,11.07
2019-03-17T00:34:25.486Z,11.06
2019-03-17T00:36:53.953Z,11.08
2019-03-17T00:39:22.391Z,11.11
2019-03-17T00:41:50.839Z,11.14
2019-03-17T00:44:19.310Z,11.13
2019-03-17T00:46:49.253Z,11.11
2019-03-17T00:49:17.676Z,11.13
2019-03-17T00:51:46.171Z,11.12
2019-03-17T00:54:14.593Z,11.11
2019-03-17T00:56:43.089Z,11.13
2019-03-17T00:59:11.540Z,11.11
2019-03-17T01:01:40.065Z,11.12
2019-03-17T01:04:08.617Z,11.14
2019-03-17T01:06:37.066Z,11.13
2019-03-17T01:09:06.072Z,11.11
2019-03-17T01:11:34.526Z,11.10
2019-03-17T01:14:03.004Z,11.10
2019-03-17T01:16:31.508Z,11.10
2019-03-17T01:18:59.948Z,11.08
2019-03-17T01:21:28.452Z,11.06
2019-03-17T01:23:56.914Z,11.05
2019-03-17T01:26:25.437Z,11.03
2019-03-17T01:28:53.892Z,11.02
2019-03-17T01:31:22.371Z,11.02
2019-03-17T01:33:50.916Z,11.01
2019-03-17T01:36:19.458Z,11.01
2019-03-17T01:38:47.908Z,11.00
2019-03-17T01:41:16.356Z,10.98
2019-03-17T01:43:44.801Z,10.97
2019-03-17T01:46:13.250Z,10.97
2019-03-17T01:48:41.766Z,10.96
2019-03-17T01:51:10.292Z,10.97
2019-03-17T01:53:38.756Z,10.96
2019-03-17T01:56:07.177Z,10.96
2019-03-17T01:58:35.643Z,10.96
2019-03-17T02:01:04.230Z,10.98
2019-03-17T02:03:32.652Z,10.97
2019-03-17T02:06:01.120Z,10.97
2019-03-17T02:08:29.682Z,10.96
2019-03-17T02:10:58.131Z,10.97
2019-03-17T02:13:26.559Z,10.96
2019-03-17T02:15:55.061Z,10.95
2019-03-17T02:18:23.492Z,10.95
2019-03-17T02:20:51.950Z,10.93
2019-03-17T02:23:20.396Z,10.94
2019-03-17T02:25:48.911Z,10.94
2019-03-17T02:28:17.433Z,10.94
2019-03-17T02:30:45.844Z,10.94
2019-03-17T02:33:14.287Z,10.84
2019-03-17T02:35:42.755Z,10.74
2019-03-17T02:38:11.240Z,10.68
2019-03-17T02:40:39.691Z,10.61
2019-03-17T02:43:08.334Z,10.59
2019-03-17T02:45:36.788Z,10.57
2019-03-17T02:48:05.268Z,10.54
2019-03-17T02:50:33.750Z,10.49
2019-03-17T02:53:02.202Z,10.29
2019-03-17T02:55:30.657Z,10.39
2019-03-17T02:57:59.133Z,10.38
2019-03-17T03:00:27.680Z,10.34
2019-03-17T03:02:56.132Z,10.32
2019-03-17T03:05:24.558Z,10.31
2019-03-17T03:07:53.093Z,10.30
2019-03-17T03:10:21.543Z,10.25
2019-03-17T03:12:50.312Z,10.20
2019-03-17T03:15:18.749Z,10.16
2019-03-17T03:17:47.224Z,10.19
2019-03-17T03:20:15.753Z,10.18
2019-03-17T03:22:44.217Z,10.16
2019-03-17T03:25:13.050Z,10.24
2019-03-17T03:27:41.447Z,10.34
2019-03-17T03:30:11.839Z,10.43
2019-03-17T03:32:40.252Z,10.48
2019-03-17T03:35:09.705Z,10.52
2019-03-17T03:37:38.148Z,10.53
2019-03-17T03:40:11.276Z,10.57
2019-03-17T03:42:39.791Z,10.61
2019-03-17T03:45:10.561Z,10.65
2019-03-17T03:47:39.044Z,10.67
2019-03-17T03:50:09.344Z,10.70
2019-03-17T03:52:37.777Z,10.72
2019-03-17T03:55:07.566Z,10.72
2019-03-17T03:57:36.046Z,10.79
2019-03-17T04:00:15.671Z,10.82
2019-03-17T04:02:44.416Z,10.84
2019-03-17T04:05:12.871Z,10.82
2019-03-17T04:07:41.308Z,10.86
2019-03-17T04:10:10.985Z,10.86
2019-03-17T04:12:39.475Z,10.87
2019-03-17T04:15:09.870Z,10.87
2019-03-17T04:17:38.395Z,10.85
2019-03-17T04:20:08.874Z,10.81
2019-03-17T04:22:37.660Z,10.80
2019-03-17T04:25:07.676Z,10.80
2019-03-17T04:27:36.091Z,10.80
2019-03-17T04:30:06.715Z,10.80
2019-03-17T04:32:35.159Z,10.85
2019-03-17T04:35:05.034Z,10.79
2019-03-17T04:37:33.471Z,10.84
2019-03-17T04:40:02.026Z,10.85
2019-03-17T04:42:30.513Z,10.82
2019-03-17T04:44:58.968Z,10.79
2019-03-17T04:47:27.398Z,10.71
2019-03-17T04:49:55.859Z,10.63
2019-03-17T04:52:24.373Z,10.56
2019-03-17T04:54:52.838Z,10.55
2019-03-17T04:57:21.271Z,10.61
2019-03-17T04:59:49.714Z,10.64
2019-03-17T05:02:18.141Z,10.68
2019-03-17T05:04:46.735Z,10.50
2019-03-17T05:07:15.197Z,10.76
2019-03-17T05:09:43.631Z,10.79
2019-03-17T05:12:12.076Z,10.80
2019-03-17T05:14:40.504Z,10.82
2019-03-17T05:17:08.961Z,10.80
2019-03-17T05:19:37.400Z,10.83
2019-03-17T05:22:05.877Z,10.81
2019-03-17T05:24:34.310Z,10.79
2019-03-17T05:27:03.068Z,10.80
2019-03-17T05:29:31.530Z,10.80
2019-03-17T05:31:59.952Z,10.82
2019-03-17T05:34:28.437Z,10.85
2019-03-17T05:37:05.995Z,10.86
2019-03-17T05:39:27.063Z,10.89
2019-03-17T05:41:55.579Z,10.89
2019-03-17T05:44:24.111Z,10.90
2019-03-17T05:46:52.581Z,10.91
2019-03-17T05:49:21.057Z,10.90
2019-03-17T05:51:49.493Z,10.90
2019-03-17T05:54:17.957Z,10.91
2019-03-17T05:56:46.446Z,10.92
2019-03-17T05:59:14.886Z,10.92
2019-03-17T06:01:43.344Z,10.93
2019-03-17T06:04:11.852Z,10.79
2019-03-17T06:06:40.431Z,10.92
2019-03-17T06:09:09.298Z,10.91
2019-03-17T06:11:37.885Z,10.89
2019-03-17T06:14:06.306Z,10.88
2019-03-17T06:16:34.765Z,10.85
2019-03-17T06:19:03.220Z,10.78
2019-03-17T06:21:31.669Z,10.79
2019-03-17T06:24:00.162Z,10.77
2019-03-17T06:26:28.958Z,10.75
2019-03-17T06:28:57.389Z,10.73
2019-03-17T06:31:25.835Z,10.73
2019-03-17T06:33:54.336Z,10.71
2019-03-17T06:36:22.759Z,10.75
2019-03-17T06:38:51.208Z,10.77
2019-03-17T06:41:19.648Z,10.75
2019-03-17T06:43:48.114Z,10.76
2019-03-17T06:46:16.612Z,10.76
2019-03-17T06:48:45.030Z,10.76
2019-03-17T06:51:13.499Z,10.78
2019-03-17T06:53:41.922Z,10.79
2019-03-17T06:56:10.537Z,10.78
2019-03-17T06:58:38.964Z,10.78
2019-03-17T07:01:07.512Z,10.84
2019-03-17T07:03:35.969Z,10.89
2019-03-17T07:06:04.477Z,10.95
2019-03-17T07:08:32.972Z,10.96
2019-03-17T07:11:01.783Z,10.95
2019-03-17T07:13:32.476Z,10.92
2019-03-17T07:16:01.438Z,10.89
2019-03-17T07:18:29.957Z,10.86
2019-03-17T07:20:58.680Z,10.85
2019-03-17T07:23:27.815Z,10.86
2019-03-17T07:25:56.335Z,10.83
2019-03-17T07:28:35.919Z,10.78
2019-03-17T07:31:04.467Z,10.73
2019-03-17T07:33:33.039Z,10.68
2019-03-17T07:36:08.380Z,10.64
2019-03-17T07:38:37.633Z,10.58
2019-03-17T07:41:06.092Z,10.50
2019-03-17T07:43:34.501Z,10.43
2019-03-17T07:46:06.028Z,10.43
2019-03-17T07:48:34.475Z,10.44
2019-03-17T07:51:02.923Z,10.43
2019-03-17T07:53:31.497Z,10.42
2019-03-17T07:55:59.937Z,10.45
2019-03-17T07:58:28.406Z,10.48
2019-03-17T08:00:56.948Z,10.52
2019-03-17T08:03:25.401Z,10.32
2019-03-17T08:05:53.847Z,10.49
2019-03-17T08:08:22.371Z,10.49
2019-03-17T08:10:50.827Z,10.52
2019-03-17T08:13:26.534Z,10.54
2019-03-17T08:15:55.049Z,10.55
2019-03-17T08:18:23.581Z,10.51
2019-03-17T08:20:52.076Z,10.51
2019-03-17T08:23:20.635Z,10.51
2019-03-17T08:25:49.071Z,10.54
2019-03-17T08:28:17.524Z,10.54
2019-03-17T08:30:52.938Z,10.57
2019-03-17T08:33:16.121Z,10.62
2019-03-17T08:35:44.579Z,10.63
2019-03-17T08:38:21.813Z,10.66
2019-03-17T08:40:43.256Z,10.66
2019-03-17T08:43:11.680Z,10.74
2019-03-17T08:45:40.312Z,10.74
2019-03-17T08:48:08.822Z,10.74
2019-03-17T08:50:37.301Z,10.78
2019-03-17T08:53:05.800Z,10.81
2019-03-17T08:55:34.255Z,10.79
2019-03-17T08:58:02.764Z,10.76
2019-03-17T09:00:31.303Z,10.66
2019-03-17T09:02:59.749Z,10.56
2019-03-17T09:05:28.267Z,10.32
2019-03-17T09:07:56.833Z,9.69
2019-03-17T09:10:25.268Z,9.02
2019-03-17T09:12:53.722Z,8.93
2019-03-17T09:15:22.226Z,8.83
2019-03-17T09:17:50.779Z,8.63
2019-03-17T09:20:19.212Z,8.62
2019-03-17T09:22:47.642Z,8.65
2019-03-17T09:25:16.137Z,8.51
2019-03-17T09:27:44.587Z,8.47
2019-03-17T09:30:17.724Z,8.43
2019-03-17T09:32:46.171Z,8.47
2019-03-17T09:35:14.610Z,8.58
2019-03-17T09:37:43.268Z,8.69
2019-03-17T09:40:14.058Z,8.69
2019-03-17T09:42:42.480Z,8.75
2019-03-17T09:45:15.419Z,8.93
2019-03-17T09:47:43.921Z,9.06
2019-03-17T09:50:15.003Z,9.23
2019-03-17T09:52:43.399Z,9.29
2019-03-17T09:55:11.962Z,9.25
2019-03-17T09:57:40.391Z,9.20
2019-03-17T10:00:17.106Z,9.11
2019-03-17T10:02:45.544Z,9.07
2019-03-17T10:05:14.913Z,9.13
2019-03-17T10:07:43.347Z,9.24
2019-03-17T10:10:17.826Z,9.14
2019-03-17T10:12:48.434Z,9.23
2019-03-17T10:15:21.065Z,9.24
2019-03-17T10:17:49.693Z,9.22
2019-03-17T10:20:19.403Z,9.18
2019-03-17T10:22:47.979Z,9.17
2019-03-17T10:25:16.521Z,9.26
2019-03-17T10:27:45.040Z,9.39
2019-03-17T10:30:18.595Z,9.49
2019-03-17T10:32:47.026Z,9.59
2019-03-17T10:35:15.532Z,9.57
2019-03-17T10:37:43.973Z,9.58
2019-03-17T10:40:16.998Z,9.64
2019-03-17T10:42:45.393Z,9.68
2019-03-17T10:45:14.449Z,9.75
2019-03-17T10:47:43.002Z,9.91
2019-03-17T10:50:19.322Z,9.84
2019-03-17T10:52:47.717Z,9.65
2019-03-17T10:55:16.178Z,9.66
2019-03-17T10:57:44.643Z,9.80
2019-03-17T11:00:17.320Z,9.83
2019-03-17T11:02:45.754Z,9.77
2019-03-17T11:05:15.933Z,9.66
2019-03-17T11:07:44.452Z,9.69
2019-03-17T11:10:14.026Z,9.99
2019-03-17T11:12:42.614Z,9.96
2019-03-17T11:15:19.184Z,10.07
2019-03-17T11:17:47.594Z,10.05
2019-03-17T11:20:16.528Z,10.13
2019-03-17T11:22:44.950Z,10.31
2019-03-17T11:25:18.231Z,10.24
2019-03-17T11:27:46.666Z,10.27
2019-03-17T11:30:18.720Z,10.30
2019-03-17T11:32:47.343Z,9.98
2019-03-17T11:35:15.867Z,10.08
2019-03-17T11:37:44.320Z,10.27
2019-03-17T11:40:17.908Z,10.58
2019-03-17T11:42:49.547Z,10.68
2019-03-17T11:45:17.245Z,10.68
2019-03-17T11:47:45.767Z,10.74
2019-03-17T11:50:23.045Z,10.81
2019-03-17T11:52:51.855Z,10.81
2019-03-17T11:55:20.315Z,10.72
2019-03-17T11:57:48.798Z,10.68
2019-03-17T12:00:18.088Z,10.56
2019-03-17T12:02:46.528Z,10.73
2019-03-17T12:05:15.220Z,10.85
2019-03-17T12:07:43.718Z,10.81
2019-03-17T12:10:19.065Z,10.94
2019-03-17T12:12:47.515Z,10.86
2019-03-17T12:15:20.695Z,10.65
2019-03-17T12:17:49.257Z,10.53
2019-03-17T12:20:17.769Z,10.38
2019-03-17T12:22:46.388Z,10.25
2019-03-17T12:25:16.163Z,10.28
2019-03-17T12:27:44.955Z,10.29
2019-03-17T12:30:16.455Z,10.27
2019-03-17T12:32:44.884Z,10.30
2019-03-17T12:35:13.571Z,10.35
2019-03-17T12:37:42.049Z,10.40
2019-03-17T12:40:10.483Z,10.53
2019-03-17T12:42:38.928Z,10.70
2019-03-17T12:45:08.897Z,10.73
2019-03-17T12:47:37.627Z,10.72
2019-03-17T12:50:11.878Z,10.63
2019-03-17T12:52:40.358Z,10.58
2019-03-17T12:55:09.594Z,10.51
2019-03-17T12:57:38.042Z,10.59
2019-03-17T13:00:21.430Z,10.65
2019-03-17T13:02:49.894Z,10.59
2019-03-17T20:34:21.637Z,6.09
2019-03-17T20:36:50.109Z,6.11
2019-03-17T20:39:18.564Z,6.11
2019-03-17T20:41:47.023Z,6.09
2019-03-17T20:44:15.478Z,6.08
2019-03-17T20:46:43.908Z,6.12
2019-03-17T20:49:12.443Z,6.26
2019-03-17T20:51:41.058Z,6.39
2019-03-17T20:54:09.506Z,6.39
2019-03-17T20:56:38.038Z,6.50
2019-03-17T20:59:06.499Z,6.52
2019-03-17T21:01:34.944Z,6.48
2019-03-17T21:04:03.444Z,6.37
2019-03-17T21:06:31.883Z,6.32
2019-03-17T21:09:00.331Z,6.32
2019-03-17T21:11:28.767Z,6.17
2019-03-17T21:13:57.310Z,6.17
2019-03-17T21:16:25.747Z,6.12
2019-03-17T21:18:54.282Z,6.08
2019-03-17T21:21:22.812Z,6.08
2019-03-17T21:23:51.532Z,6.08
2019-03-17T21:26:20.096Z,6.07
2019-03-17T21:28:48.598Z,6.16
2019-03-17T21:31:17.269Z,6.22
2019-03-17T21:33:48.805Z,6.22
2019-03-17T21:36:17.391Z,6.18
2019-03-17T21:38:46.739Z,6.15
2019-03-17T21:41:15.205Z,6.10
2019-03-17T21:43:44.852Z,6.09
2019-03-17T21:46:13.433Z,6.04
2019-03-17T21:48:41.863Z,6.04
2019-03-17T21:51:10.314Z,6.04
2019-03-17T21:53:38.773Z,6.04
2019-03-17T21:56:07.286Z,6.03
2019-03-17T21:58:35.784Z,6.05
2019-03-17T22:01:04.253Z,5.99
2019-03-17T22:03:34.190Z,5.99
2019-03-17T22:06:02.628Z,5.99
2019-03-17T22:08:31.287Z,6.03
2019-03-17T22:10:59.798Z,6.03
2019-03-17T22:13:28.460Z,6.03
2019-03-17T22:15:57.133Z,5.99
2019-03-17T22:18:25.623Z,5.94
2019-03-17T22:20:54.086Z,5.90
2019-03-17T22:23:22.547Z,5.87
2019-03-17T22:25:50.990Z,5.82
2019-03-17T22:28:19.841Z,5.82
2019-03-17T22:30:48.484Z,5.84
2019-03-17T22:33:17.006Z,5.82
2019-03-17T22:35:45.485Z,5.81
2019-03-17T22:38:13.923Z,5.78
2019-03-17T22:40:42.394Z,5.72
2019-03-17T22:43:10.936Z,5.72
2019-03-17T22:45:39.374Z,5.72
2019-03-17T22:48:07.871Z,5.69
2019-03-17T22:50:36.432Z,5.60
2019-03-17T22:53:05.003Z,5.60
2019-03-17T22:55:33.529Z,5.61
2019-03-17T22:58:01.969Z,5.57
2019-03-17T23:00:34.797Z,5.56
2019-03-17T23:03:03.488Z,5.54
2019-03-17T23:05:32.114Z,5.49
2019-03-17T23:08:00.504Z,5.47
2019-03-17T23:10:28.982Z,5.44
2019-03-17T23:12:57.406Z,5.43
2019-03-17T23:15:25.844Z,5.37
2019-03-17T23:17:54.279Z,5.37
2019-03-17T23:20:22.756Z,5.36
2019-03-17T23:22:51.193Z,5.36
2019-03-17T23:25:19.693Z,5.30
2019-03-17T23:27:48.404Z,5.30
2019-03-17T23:30:18.951Z,5.28
2019-03-17T23:32:49.152Z,5.26
2019-03-17T23:35:18.241Z,5.22
2019-03-17T23:37:46.865Z,5.22
2019-03-17T23:40:16.535Z,5.22
2019-03-17T23:42:45.156Z,5.19
2019-03-17T23:45:14.520Z,5.16
2019-03-17T23:47:43.168Z,5.15
2019-03-17T23:50:15.189Z,5.13
2019-03-17T23:52:43.960Z,5.10
2019-03-17T23:55:14.625Z,5.09
2019-03-17T23:57:43.135Z,5.06
